sensor_id;sensor_type;location;lat;lon;timestamp;P1;durP1;ratioP1;P2;durP2;ratioP2
12474;SDS011;6302;42.624;23.334;2022-11-12T00:00:09;9.70;;;7.73;;
12474;SDS011;6302;42.624;23.334;2022-11-12T00:02:38;10.50;;;7.07;;
12474;SDS011;6302;42.624;23.334;2022-11-12T00:05:05;7.63;;;6.37;;
12474;SDS011;6302;42.624;23.334;2022-11-12T00:07:32;8.40;;;6.33;;
12474;SDS011;6302;42.624;23.334;2022-11-12T00:09:59;8.10;;;6.47;;
12474;SDS011;6302;42.624;23.334;2022-11-12T00:12:26;8.03;;;6.33;;
12474;SDS011;6302;42.624;23.334;2022-11-12T00:14:53;10.33;;;7.53;;
12474;SDS011;6302;42.624;23.334;2022-11-12T00:17:20;8.33;;;6.83;;
12474;SDS011;6302;42.624;23.334;2022-11-12T00:19:48;8.87;;;6.97;;
12474;SDS011;6302;42.624;23.334;2022-11-12T00:22:15;8.50;;;6.27;;
12474;SDS011;6302;42.624;23.334;2022-11-12T00:24:41;7.60;;;6.30;;
12474;SDS011;6302;42.624;23.334;2022-11-12T00:27:08;7.90;;;6.43;;
12474;SDS011;6302;42.624;23.334;2022-11-12T00:29:35;13.33;;;9.60;;
12474;SDS011;6302;42.624;23.334;2022-11-12T00:32:03;13.73;;;9.67;;
12474;SDS011;6302;42.624;23.334;2022-11-12T00:34:30;15.00;;;12.03;;
12474;SDS011;6302;42.624;23.334;2022-11-12T00:36:58;26.33;;;16.97;;
12474;SDS011;6302;42.624;23.334;2022-11-12T00:39:25;27.30;;;16.63;;
12474;SDS011;6302;42.624;23.334;2022-11-12T00:41:52;26.37;;;16.27;;
12474;SDS011;6302;42.624;23.334;2022-11-12T00:44:19;27.93;;;17.23;;
12474;SDS011;6302;42.624;23.334;2022-11-12T00:46:46;22.10;;;15.47;;
12474;SDS011;6302;42.624;23.334;2022-11-12T00:49:13;24.10;;;15.73;;
12474;SDS011;6302;42.624;23.334;2022-11-12T00:51:40;23.30;;;16.50;;
12474;SDS011;6302;42.624;23.334;2022-11-12T00:54:09;27.60;;;17.03;;
12474;SDS011;6302;42.624;23.334;2022-11-12T00:56:36;23.57;;;14.33;;
12474;SDS011;6302;42.624;23.334;2022-11-12T00:59:02;19.83;;;14.20;;
12474;SDS011;6302;42.624;23.334;2022-11-12T01:01:29;20.03;;;13.57;;
12474;SDS011;6302;42.624;23.334;2022-11-12T01:03:56;18.33;;;12.70;;
12474;SDS011;6302;42.624;23.334;2022-11-12T01:06:24;20.33;;;13.53;;
12474;SDS011;6302;42.624;23.334;2022-11-12T01:08:51;19.17;;;12.27;;
12474;SDS011;6302;42.624;23.334;2022-11-12T01:11:22;18.73;;;11.77;;
12474;SDS011;6302;42.624;23.334;2022-11-12T01:13:52;16.73;;;11.77;;
12474;SDS011;6302;42.624;23.334;2022-11-12T01:16:21;16.67;;;11.57;;
12474;SDS011;6302;42.624;23.334;2022-11-12T01:18:51;17.77;;;11.90;;
12474;SDS011;6302;42.624;23.334;2022-11-12T01:21:20;19.03;;;12.57;;
12474;SDS011;6302;42.624;23.334;2022-11-12T01:23:47;17.80;;;13.03;;
12474;SDS011;6302;42.624;23.334;2022-11-12T01:26:16;17.03;;;12.03;;
12474;SDS011;6302;42.624;23.334;2022-11-12T01:28:46;19.90;;;13.80;;
12474;SDS011;6302;42.624;23.334;2022-11-12T01:31:14;25.23;;;16.17;;
12474;SDS011;6302;42.624;23.334;2022-11-12T01:33:43;26.17;;;16.70;;
12474;SDS011;6302;42.624;23.334;2022-11-12T01:36:11;28.13;;;17.40;;
12474;SDS011;6302;42.624;23.334;2022-11-12T01:38:39;27.37;;;17.20;;
12474;SDS011;6302;42.624;23.334;2022-11-12T01:41:08;27.17;;;16.70;;
12474;SDS011;6302;42.624;23.334;2022-11-12T01:43:36;27.00;;;17.90;;
12474;SDS011;6302;42.624;23.334;2022-11-12T01:46:06;27.83;;;17.43;;
12474;SDS011;6302;42.624;23.334;2022-11-12T01:48:43;25.47;;;17.07;;
12474;SDS011;6302;42.624;23.334;2022-11-12T01:51:14;29.40;;;18.10;;
12474;SDS011;6302;42.624;23.334;2022-11-12T01:53:43;24.90;;;17.30;;
12474;SDS011;6302;42.624;23.334;2022-11-12T01:56:12;30.47;;;18.43;;
12474;SDS011;6302;42.624;23.334;2022-11-12T01:58:41;26.97;;;17.77;;
12474;SDS011;6302;42.624;23.334;2022-11-12T02:01:11;27.87;;;18.03;;
12474;SDS011;6302;42.624;23.334;2022-11-12T02:03:38;32.10;;;18.77;;
12474;SDS011;6302;42.624;23.334;2022-11-12T02:06:07;28.93;;;19.13;;
12474;SDS011;6302;42.624;23.334;2022-11-12T02:08:36;25.23;;;16.97;;
12474;SDS011;6302;42.624;23.334;2022-11-12T02:11:11;24.37;;;16.77;;
12474;SDS011;6302;42.624;23.334;2022-11-12T02:13:39;28.53;;;16.80;;
12474;SDS011;6302;42.624;23.334;2022-11-12T02:16:27;28.47;;;17.90;;
12474;SDS011;6302;42.624;23.334;2022-11-12T02:18:58;26.83;;;17.60;;
12474;SDS011;6302;42.624;23.334;2022-11-12T02:21:28;26.30;;;17.77;;
12474;SDS011;6302;42.624;23.334;2022-11-12T02:23:59;31.07;;;18.20;;
12474;SDS011;6302;42.624;23.334;2022-11-12T02:26:27;27.53;;;16.73;;
12474;SDS011;6302;42.624;23.334;2022-11-12T02:28:57;23.37;;;15.67;;
12474;SDS011;6302;42.624;23.334;2022-11-12T02:31:24;21.70;;;15.43;;
12474;SDS011;6302;42.624;23.334;2022-11-12T02:33:51;19.00;;;14.60;;
12474;SDS011;6302;42.624;23.334;2022-11-12T02:36:17;20.20;;;14.07;;
12474;SDS011;6302;42.624;23.334;2022-11-12T02:38:46;11.83;;;8.67;;
12474;SDS011;6302;42.624;23.334;2022-11-12T02:41:13;21.83;;;14.80;;
12474;SDS011;6302;42.624;23.334;2022-11-12T02:43:40;19.93;;;13.53;;
12474;SDS011;6302;42.624;23.334;2022-11-12T02:46:07;16.73;;;12.93;;
12474;SDS011;6302;42.624;23.334;2022-11-12T02:48:34;19.80;;;14.27;;
12474;SDS011;6302;42.624;23.334;2022-11-12T02:51:01;21.20;;;13.73;;
12474;SDS011;6302;42.624;23.334;2022-11-12T02:53:28;17.93;;;12.53;;
12474;SDS011;6302;42.624;23.334;2022-11-12T02:55:57;20.40;;;13.90;;
12474;SDS011;6302;42.624;23.334;2022-11-12T02:58:24;20.30;;;12.53;;
12474;SDS011;6302;42.624;23.334;2022-11-12T03:00:51;19.50;;;12.80;;
12474;SDS011;6302;42.624;23.334;2022-11-12T03:03:19;16.43;;;11.57;;
12474;SDS011;6302;42.624;23.334;2022-11-12T03:05:52;17.93;;;12.60;;
12474;SDS011;6302;42.624;23.334;2022-11-12T03:08:20;17.70;;;12.50;;
12474;SDS011;6302;42.624;23.334;2022-11-12T03:10:47;13.97;;;10.57;;
12474;SDS011;6302;42.624;23.334;2022-11-12T03:13:16;11.90;;;8.50;;
12474;SDS011;6302;42.624;23.334;2022-11-12T03:15:43;8.03;;;6.17;;
12474;SDS011;6302;42.624;23.334;2022-11-12T03:18:11;7.30;;;5.47;;
12474;SDS011;6302;42.624;23.334;2022-11-12T03:20:38;6.23;;;4.83;;
12474;SDS011;6302;42.624;23.334;2022-11-12T03:23:06;5.60;;;4.40;;
12474;SDS011;6302;42.624;23.334;2022-11-12T03:25:35;4.90;;;4.40;;
12474;SDS011;6302;42.624;23.334;2022-11-12T03:28:03;5.67;;;4.10;;
12474;SDS011;6302;42.624;23.334;2022-11-12T03:30:33;4.10;;;3.70;;
12474;SDS011;6302;42.624;23.334;2022-11-12T03:33:02;4.03;;;3.53;;
12474;SDS011;6302;42.624;23.334;2022-11-12T03:35:29;4.50;;;3.83;;
12474;SDS011;6302;42.624;23.334;2022-11-12T03:37:58;4.30;;;3.67;;
12474;SDS011;6302;42.624;23.334;2022-11-12T03:40:25;4.47;;;4.07;;
12474;SDS011;6302;42.624;23.334;2022-11-12T03:42:52;6.03;;;4.40;;
12474;SDS011;6302;42.624;23.334;2022-11-12T03:45:20;5.53;;;4.27;;
12474;SDS011;6302;42.624;23.334;2022-11-12T03:47:51;4.87;;;4.20;;
12474;SDS011;6302;42.624;23.334;2022-11-12T03:50:20;4.60;;;4.20;;
12474;SDS011;6302;42.624;23.334;2022-11-12T03:52:49;6.20;;;4.80;;
12474;SDS011;6302;42.624;23.334;2022-11-12T03:55:18;4.87;;;4.37;;
12474;SDS011;6302;42.624;23.334;2022-11-12T03:57:46;8.53;;;4.53;;
12474;SDS011;6302;42.624;23.334;2022-11-12T04:00:14;4.70;;;4.20;;
12474;SDS011;6302;42.624;23.334;2022-11-12T04:02:41;4.57;;;4.17;;
12474;SDS011;6302;42.624;23.334;2022-11-12T04:05:10;4.60;;;3.80;;
12474;SDS011;6302;42.624;23.334;2022-11-12T04:07:58;5.33;;;4.80;;
12474;SDS011;6302;42.624;23.334;2022-11-12T04:10:42;5.67;;;5.10;;
12474;SDS011;6302;42.624;23.334;2022-11-12T04:13:09;5.13;;;4.63;;
12474;SDS011;6302;42.624;23.334;2022-11-12T04:15:55;5.60;;;4.47;;
12474;SDS011;6302;42.624;23.334;2022-11-12T04:18:41;5.60;;;4.97;;
12474;SDS011;6302;42.624;23.334;2022-11-12T04:21:29;6.40;;;4.80;;
12474;SDS011;6302;42.624;23.334;2022-11-12T04:24:16;5.00;;;4.43;;
12474;SDS011;6302;42.624;23.334;2022-11-12T04:27:01;6.70;;;5.60;;
12474;SDS011;6302;42.624;23.334;2022-11-12T04:29:28;5.73;;;5.13;;
12474;SDS011;6302;42.624;23.334;2022-11-12T04:32:09;5.70;;;4.90;;
12474;SDS011;6302;42.624;23.334;2022-11-12T04:34:36;6.07;;;5.47;;
12474;SDS011;6302;42.624;23.334;2022-11-12T04:37:04;5.83;;;5.23;;
12474;SDS011;6302;42.624;23.334;2022-11-12T04:39:31;6.00;;;5.40;;
12474;SDS011;6302;42.624;23.334;2022-11-12T04:41:58;5.97;;;4.73;;
12474;SDS011;6302;42.624;23.334;2022-11-12T04:44:43;6.77;;;4.93;;
12474;SDS011;6302;42.624;23.334;2022-11-12T04:47:26;4.63;;;4.20;;
12474;SDS011;6302;42.624;23.334;2022-11-12T04:49:54;5.03;;;4.57;;
12474;SDS011;6302;42.624;23.334;2022-11-12T04:52:22;5.27;;;4.63;;
12474;SDS011;6302;42.624;23.334;2022-11-12T04:54:50;4.80;;;4.30;;
12474;SDS011;6302;42.624;23.334;2022-11-12T04:57:17;5.53;;;4.47;;
12474;SDS011;6302;42.624;23.334;2022-11-12T04:59:45;6.27;;;4.87;;
12474;SDS011;6302;42.624;23.334;2022-11-12T05:02:12;5.33;;;4.70;;
12474;SDS011;6302;42.624;23.334;2022-11-12T05:04:39;5.40;;;4.90;;
12474;SDS011;6302;42.624;23.334;2022-11-12T05:07:06;5.70;;;5.20;;
12474;SDS011;6302;42.624;23.334;2022-11-12T05:09:34;5.83;;;5.23;;
12474;SDS011;6302;42.624;23.334;2022-11-12T05:12:02;6.10;;;5.50;;
12474;SDS011;6302;42.624;23.334;2022-11-12T05:14:29;6.93;;;5.50;;
12474;SDS011;6302;42.624;23.334;2022-11-12T05:16:55;6.37;;;5.77;;
12474;SDS011;6302;42.624;23.334;2022-11-12T05:19:22;6.70;;;5.77;;
12474;SDS011;6302;42.624;23.334;2022-11-12T05:21:49;6.30;;;5.70;;
12474;SDS011;6302;42.624;23.334;2022-11-12T05:24:31;6.33;;;5.40;;
12474;SDS011;6302;42.624;23.334;2022-11-12T05:27:01;5.40;;;4.87;;
12474;SDS011;6302;42.624;23.334;2022-11-12T05:29:28;6.07;;;5.43;;
12474;SDS011;6302;42.624;23.334;2022-11-12T05:31:54;5.63;;;5.13;;
12474;SDS011;6302;42.624;23.334;2022-11-12T05:34:21;6.40;;;5.80;;
12474;SDS011;6302;42.624;23.334;2022-11-12T05:36:48;6.27;;;5.67;;
12474;SDS011;6302;42.624;23.334;2022-11-12T05:39:16;7.97;;;5.77;;
12474;SDS011;6302;42.624;23.334;2022-11-12T05:41:43;6.23;;;5.63;;
12474;SDS011;6302;42.624;23.334;2022-11-12T05:44:11;8.17;;;6.83;;
12474;SDS011;6302;42.624;23.334;2022-11-12T05:46:38;6.93;;;5.93;;
12474;SDS011;6302;42.624;23.334;2022-11-12T05:49:05;8.50;;;6.20;;
12474;SDS011;6302;42.624;23.334;2022-11-12T05:51:32;9.63;;;7.03;;
12474;SDS011;6302;42.624;23.334;2022-11-12T05:53:59;6.07;;;5.47;;
12474;SDS011;6302;42.624;23.334;2022-11-12T05:56:26;7.47;;;6.23;;
12474;SDS011;6302;42.624;23.334;2022-11-12T05:58:53;7.73;;;5.97;;
12474;SDS011;6302;42.624;23.334;2022-11-12T06:01:21;6.00;;;5.40;;
12474;SDS011;6302;42.624;23.334;2022-11-12T06:03:48;7.37;;;5.63;;
12474;SDS011;6302;42.624;23.334;2022-11-12T06:06:15;5.93;;;5.33;;
12474;SDS011;6302;42.624;23.334;2022-11-12T06:08:42;6.17;;;5.53;;
12474;SDS011;6302;42.624;23.334;2022-11-12T06:11:09;6.50;;;5.80;;
12474;SDS011;6302;42.624;23.334;2022-11-12T06:13:35;6.70;;;5.00;;
12474;SDS011;6302;42.624;23.334;2022-11-12T06:16:02;5.83;;;5.20;;
12474;SDS011;6302;42.624;23.334;2022-11-12T06:18:31;6.23;;;4.83;;
12474;SDS011;6302;42.624;23.334;2022-11-12T06:36:11;5.93;;;4.93;;
12474;SDS011;6302;42.624;23.334;2022-11-12T06:38:40;5.77;;;5.17;;
12474;SDS011;6302;42.624;23.334;2022-11-12T06:41:08;5.50;;;4.50;;
12474;SDS011;6302;42.624;23.334;2022-11-12T06:43:36;5.60;;;4.80;;
12474;SDS011;6302;42.624;23.334;2022-11-12T06:46:04;5.53;;;4.50;;
12474;SDS011;6302;42.624;23.334;2022-11-12T06:48:32;5.83;;;5.20;;
12474;SDS011;6302;42.624;23.334;2022-11-12T06:51:04;6.07;;;5.47;;
12474;SDS011;6302;42.624;23.334;2022-11-12T06:53:34;6.87;;;5.97;;
12474;SDS011;6302;42.624;23.334;2022-11-12T06:56:01;7.43;;;5.70;;
12474;SDS011;6302;42.624;23.334;2022-11-12T06:58:29;6.10;;;5.33;;
12474;SDS011;6302;42.624;23.334;2022-11-12T07:00:55;7.67;;;5.70;;
12474;SDS011;6302;42.624;23.334;2022-11-12T07:03:22;6.27;;;5.27;;
12474;SDS011;6302;42.624;23.334;2022-11-12T07:05:49;6.73;;;5.17;;
12474;SDS011;6302;42.624;23.334;2022-11-12T07:08:16;6.60;;;5.50;;
12474;SDS011;6302;42.624;23.334;2022-11-12T07:10:44;7.27;;;5.10;;
12474;SDS011;6302;42.624;23.334;2022-11-12T07:13:11;6.53;;;5.43;;
12474;SDS011;6302;42.624;23.334;2022-11-12T07:15:37;5.67;;;5.00;;
12474;SDS011;6302;42.624;23.334;2022-11-12T07:18:04;9.20;;;5.10;;
12474;SDS011;6302;42.624;23.334;2022-11-12T07:20:31;6.23;;;5.60;;
12474;SDS011;6302;42.624;23.334;2022-11-12T07:22:59;6.87;;;5.63;;
12474;SDS011;6302;42.624;23.334;2022-11-12T07:25:26;5.57;;;5.07;;
12474;SDS011;6302;42.624;23.334;2022-11-12T07:27:54;5.40;;;4.90;;
12474;SDS011;6302;42.624;23.334;2022-11-12T07:30:21;6.03;;;5.43;;
12474;SDS011;6302;42.624;23.334;2022-11-12T07:32:48;5.37;;;4.87;;
12474;SDS011;6302;42.624;23.334;2022-11-12T07:35:15;5.17;;;4.70;;
12474;SDS011;6302;42.624;23.334;2022-11-12T07:37:42;6.47;;;5.23;;
12474;SDS011;6302;42.624;23.334;2022-11-12T07:40:10;5.80;;;5.30;;
12474;SDS011;6302;42.624;23.334;2022-11-12T07:42:37;5.40;;;4.87;;
12474;SDS011;6302;42.624;23.334;2022-11-12T07:45:06;6.77;;;5.23;;
12474;SDS011;6302;42.624;23.334;2022-11-12T07:47:33;6.77;;;5.67;;
12474;SDS011;6302;42.624;23.334;2022-11-12T07:49:59;5.70;;;5.10;;
12474;SDS011;6302;42.624;23.334;2022-11-12T07:52:26;7.33;;;5.83;;
12474;SDS011;6302;42.624;23.334;2022-11-12T07:54:53;8.63;;;5.83;;
12474;SDS011;6302;42.624;23.334;2022-11-12T07:57:20;5.87;;;5.27;;
12474;SDS011;6302;42.624;23.334;2022-11-12T07:59:47;5.97;;;5.37;;
12474;SDS011;6302;42.624;23.334;2022-11-12T08:02:15;7.40;;;5.93;;
12474;SDS011;6302;42.624;23.334;2022-11-12T08:04:42;7.67;;;5.00;;
12474;SDS011;6302;42.624;23.334;2022-11-12T08:07:09;6.53;;;5.93;;
12474;SDS011;6302;42.624;23.334;2022-11-12T08:09:36;9.87;;;5.73;;
12474;SDS011;6302;42.624;23.334;2022-11-12T08:12:03;7.77;;;5.43;;
12474;SDS011;6302;42.624;23.334;2022-11-12T08:14:30;6.43;;;5.40;;
12474;SDS011;6302;42.624;23.334;2022-11-12T08:16:56;7.23;;;6.30;;
12474;SDS011;6302;42.624;23.334;2022-11-12T08:19:25;9.00;;;6.33;;
12474;SDS011;6302;42.624;23.334;2022-11-12T08:21:51;17.93;;;10.97;;
12474;SDS011;6302;42.624;23.334;2022-11-12T08:24:18;13.63;;;8.73;;
12474;SDS011;6302;42.624;23.334;2022-11-12T08:26:45;7.53;;;6.27;;
12474;SDS011;6302;42.624;23.334;2022-11-12T08:29:12;6.70;;;5.83;;
12474;SDS011;6302;42.624;23.334;2022-11-12T08:31:40;7.20;;;6.30;;
12474;SDS011;6302;42.624;23.334;2022-11-12T08:34:06;5.80;;;5.20;;
12474;SDS011;6302;42.624;23.334;2022-11-12T08:36:40;6.73;;;5.10;;
12474;SDS011;6302;42.624;23.334;2022-11-12T08:39:07;9.67;;;8.40;;
12474;SDS011;6302;42.624;23.334;2022-11-12T08:41:34;6.90;;;6.20;;
12474;SDS011;6302;42.624;23.334;2022-11-12T08:44:01;6.07;;;5.37;;
12474;SDS011;6302;42.624;23.334;2022-11-12T08:46:28;6.00;;;5.40;;
12474;SDS011;6302;42.624;23.334;2022-11-12T08:48:54;5.57;;;5.07;;
12474;SDS011;6302;42.624;23.334;2022-11-12T08:51:21;5.57;;;4.93;;
12474;SDS011;6302;42.624;23.334;2022-11-12T08:53:49;6.70;;;5.57;;
12474;SDS011;6302;42.624;23.334;2022-11-12T08:56:17;12.20;;;8.87;;
12474;SDS011;6302;42.624;23.334;2022-11-12T08:58:43;10.40;;;8.13;;
12474;SDS011;6302;42.624;23.334;2022-11-12T09:01:10;9.70;;;8.30;;
12474;SDS011;6302;42.624;23.334;2022-11-12T09:03:37;8.03;;;6.77;;
12474;SDS011;6302;42.624;23.334;2022-11-12T09:06:04;7.50;;;6.70;;
12474;SDS011;6302;42.624;23.334;2022-11-12T09:08:32;7.37;;;5.87;;
12474;SDS011;6302;42.624;23.334;2022-11-12T09:11:04;9.17;;;6.23;;
12474;SDS011;6302;42.624;23.334;2022-11-12T09:13:31;8.23;;;6.40;;
12474;SDS011;6302;42.624;23.334;2022-11-12T09:15:59;6.93;;;5.87;;
12474;SDS011;6302;42.624;23.334;2022-11-12T09:18:27;6.30;;;5.70;;
12474;SDS011;6302;42.624;23.334;2022-11-12T09:20:58;5.47;;;4.97;;
12474;SDS011;6302;42.624;23.334;2022-11-12T09:23:29;12.20;;;7.93;;
12474;SDS011;6302;42.624;23.334;2022-11-12T09:25:56;12.63;;;8.57;;
12474;SDS011;6302;42.624;23.334;2022-11-12T09:28:24;6.07;;;5.20;;
12474;SDS011;6302;42.624;23.334;2022-11-12T09:30:52;14.03;;;8.63;;
12474;SDS011;6302;42.624;23.334;2022-11-12T09:33:20;13.87;;;8.87;;
12474;SDS011;6302;42.624;23.334;2022-11-12T09:35:51;7.87;;;6.00;;
12474;SDS011;6302;42.624;23.334;2022-11-12T09:38:18;5.50;;;4.97;;
12474;SDS011;6302;42.624;23.334;2022-11-12T09:40:51;6.73;;;5.30;;
12474;SDS011;6302;42.624;23.334;2022-11-12T09:43:29;6.60;;;5.47;;
12474;SDS011;6302;42.624;23.334;2022-11-12T09:46:00;11.33;;;6.93;;
12474;SDS011;6302;42.624;23.334;2022-11-12T09:48:31;14.17;;;7.20;;
12474;SDS011;6302;42.624;23.334;2022-11-12T09:51:09;6.60;;;5.23;;
12474;SDS011;6302;42.624;23.334;2022-11-12T09:53:42;5.47;;;4.83;;
12474;SDS011;6302;42.624;23.334;2022-11-12T09:56:18;5.97;;;4.70;;
12474;SDS011;6302;42.624;23.334;2022-11-12T09:58:48;6.87;;;5.00;;
12474;SDS011;6302;42.624;23.334;2022-11-12T10:01:15;6.67;;;5.77;;
12474;SDS011;6302;42.624;23.334;2022-11-12T10:03:49;7.93;;;5.87;;
12474;SDS011;6302;42.624;23.334;2022-11-12T10:06:22;8.93;;;5.87;;
12474;SDS011;6302;42.624;23.334;2022-11-12T10:08:53;7.53;;;4.17;;
12474;SDS011;6302;42.624;23.334;2022-11-12T10:11:35;4.27;;;3.87;;
12474;SDS011;6302;42.624;23.334;2022-11-12T10:14:33;4.57;;;4.10;;
12474;SDS011;6302;42.624;23.334;2022-11-12T10:17:17;3.90;;;3.57;;
12474;SDS011;6302;42.624;23.334;2022-11-12T10:19:54;6.73;;;4.30;;
12474;SDS011;6302;42.624;23.334;2022-11-12T10:22:34;6.70;;;4.33;;
12474;SDS011;6302;42.624;23.334;2022-11-12T10:25:10;3.77;;;3.47;;
12474;SDS011;6302;42.624;23.334;2022-11-12T10:27:41;4.00;;;3.70;;
12474;SDS011;6302;42.624;23.334;2022-11-12T10:30:15;5.17;;;4.67;;
12474;SDS011;6302;42.624;23.334;2022-11-12T10:32:44;5.20;;;4.70;;
12474;SDS011;6302;42.624;23.334;2022-11-12T10:35:13;4.33;;;3.93;;
12474;SDS011;6302;42.624;23.334;2022-11-12T10:37:44;4.77;;;4.27;;
12474;SDS011;6302;42.624;23.334;2022-11-12T10:40:25;4.83;;;4.37;;
12474;SDS011;6302;42.624;23.334;2022-11-12T10:42:55;4.40;;;4.00;;
12474;SDS011;6302;42.624;23.334;2022-11-12T10:45:25;3.33;;;3.03;;
12474;SDS011;6302;42.624;23.334;2022-11-12T10:47:52;4.83;;;4.30;;
12474;SDS011;6302;42.624;23.334;2022-11-12T10:50:20;4.73;;;4.33;;
12474;SDS011;6302;42.624;23.334;2022-11-12T10:52:54;5.00;;;4.33;;
12474;SDS011;6302;42.624;23.334;2022-11-12T10:55:23;5.03;;;4.50;;
12474;SDS011;6302;42.624;23.334;2022-11-12T11:00:57;5.67;;;4.50;;
12474;SDS011;6302;42.624;23.334;2022-11-12T11:03:26;5.90;;;4.37;;
12474;SDS011;6302;42.624;23.334;2022-11-12T11:05:57;5.20;;;4.80;;
12474;SDS011;6302;42.624;23.334;2022-11-12T11:08:39;4.57;;;4.07;;
12474;SDS011;6302;42.624;23.334;2022-11-12T11:11:09;4.87;;;4.07;;
12474;SDS011;6302;42.624;23.334;2022-11-12T11:13:43;5.03;;;4.40;;
12474;SDS011;6302;42.624;23.334;2022-11-12T11:16:14;5.43;;;4.90;;
12474;SDS011;6302;42.624;23.334;2022-11-12T11:18:44;5.60;;;4.93;;
12474;SDS011;6302;42.624;23.334;2022-11-12T11:21:25;5.27;;;4.53;;
12474;SDS011;6302;42.624;23.334;2022-11-12T11:24:05;5.40;;;4.90;;
12474;SDS011;6302;42.624;23.334;2022-11-12T11:26:48;6.23;;;5.20;;
12474;SDS011;6302;42.624;23.334;2022-11-12T11:29:28;5.63;;;4.63;;
12474;SDS011;6302;42.624;23.334;2022-11-12T11:32:11;5.27;;;4.27;;
12474;SDS011;6302;42.624;23.334;2022-11-12T11:34:52;5.70;;;4.03;;
12474;SDS011;6302;42.624;23.334;2022-11-12T11:37:31;5.93;;;5.33;;
12474;SDS011;6302;42.624;23.334;2022-11-12T11:40:09;4.00;;;3.70;;
12474;SDS011;6302;42.624;23.334;2022-11-12T11:42:46;4.00;;;3.60;;
12474;SDS011;6302;42.624;23.334;2022-11-12T11:45:25;3.90;;;3.50;;
12474;SDS011;6302;42.624;23.334;2022-11-12T11:48:00;6.60;;;4.10;;
12474;SDS011;6302;42.624;23.334;2022-11-12T11:50:34;5.87;;;4.50;;
12474;SDS011;6302;42.624;23.334;2022-11-12T11:53:14;10.60;;;3.43;;
12474;SDS011;6302;42.624;23.334;2022-11-12T11:55:52;4.27;;;3.87;;
12474;SDS011;6302;42.624;23.334;2022-11-12T11:58:36;4.07;;;3.67;;
12474;SDS011;6302;42.624;23.334;2022-11-12T12:01:16;5.00;;;3.43;;
12474;SDS011;6302;42.624;23.334;2022-11-12T12:03:56;4.30;;;3.90;;
12474;SDS011;6302;42.624;23.334;2022-11-12T12:06:32;4.47;;;3.93;;
12474;SDS011;6302;42.624;23.334;2022-11-12T12:09:11;4.23;;;3.60;;
12474;SDS011;6302;42.624;23.334;2022-11-12T12:11:50;3.60;;;3.30;;
12474;SDS011;6302;42.624;23.334;2022-11-12T12:14:30;6.63;;;3.97;;
12474;SDS011;6302;42.624;23.334;2022-11-12T12:17:07;4.57;;;3.97;;
12474;SDS011;6302;42.624;23.334;2022-11-12T12:19:44;6.63;;;4.77;;
12474;SDS011;6302;42.624;23.334;2022-11-12T12:22:20;6.83;;;4.67;;
12474;SDS011;6302;42.624;23.334;2022-11-12T12:24:55;4.37;;;3.97;;
12474;SDS011;6302;42.624;23.334;2022-11-12T12:27:24;4.43;;;3.90;;
12474;SDS011;6302;42.624;23.334;2022-11-12T12:29:56;6.67;;;4.90;;
12474;SDS011;6302;42.624;23.334;2022-11-12T12:32:27;8.17;;;6.67;;
12474;SDS011;6302;42.624;23.334;2022-11-12T12:35:02;4.83;;;4.37;;
12474;SDS011;6302;42.624;23.334;2022-11-12T12:37:40;5.97;;;4.40;;
12474;SDS011;6302;42.624;23.334;2022-11-12T12:40:15;5.27;;;4.37;;
12474;SDS011;6302;42.624;23.334;2022-11-12T12:42:47;7.17;;;5.03;;
12474;SDS011;6302;42.624;23.334;2022-11-12T12:45:30;5.43;;;4.20;;
12474;SDS011;6302;42.624;23.334;2022-11-12T12:48:03;5.90;;;4.73;;
12474;SDS011;6302;42.624;23.334;2022-11-12T12:50:36;9.03;;;5.23;;
12474;SDS011;6302;42.624;23.334;2022-11-12T12:53:04;4.47;;;4.07;;
12474;SDS011;6302;42.624;23.334;2022-11-12T12:55:56;3.90;;;3.60;;
12474;SDS011;6302;42.624;23.334;2022-11-12T12:58:25;4.23;;;3.83;;
12474;SDS011;6302;42.624;23.334;2022-11-12T13:00:55;5.47;;;3.93;;
12474;SDS011;6302;42.624;23.334;2022-11-12T13:06:26;4.10;;;3.70;;
12474;SDS011;6302;42.624;23.334;2022-11-12T13:08:58;4.77;;;4.27;;
12474;SDS011;6302;42.624;23.334;2022-11-12T13:17:46;5.93;;;4.60;;
12474;SDS011;6302;42.624;23.334;2022-11-12T13:23:09;7.73;;;5.83;;
12474;SDS011;6302;42.624;23.334;2022-11-12T13:35:18;5.63;;;4.80;;
12474;SDS011;6302;42.624;23.334;2022-11-12T13:37:50;8.03;;;5.00;;
12474;SDS011;6302;42.624;23.334;2022-11-12T13:40:23;6.47;;;4.90;;
12474;SDS011;6302;42.624;23.334;2022-11-12T13:43:02;5.43;;;4.93;;
12474;SDS011;6302;42.624;23.334;2022-11-12T13:45:33;6.50;;;4.80;;
12474;SDS011;6302;42.624;23.334;2022-11-12T13:48:06;5.00;;;4.50;;
12474;SDS011;6302;42.624;23.334;2022-11-12T13:50:34;5.23;;;4.73;;
12474;SDS011;6302;42.624;23.334;2022-11-12T13:53:01;5.53;;;5.00;;
12474;SDS011;6302;42.624;23.334;2022-11-12T13:55:34;5.77;;;5.17;;
12474;SDS011;6302;42.624;23.334;2022-11-12T13:58:01;7.13;;;5.87;;
12474;SDS011;6302;42.624;23.334;2022-11-12T14:00:28;11.63;;;6.50;;
12474;SDS011;6302;42.624;23.334;2022-11-12T14:02:57;7.43;;;6.13;;
12474;SDS011;6302;42.624;23.334;2022-11-12T14:05:27;7.43;;;6.23;;
12474;SDS011;6302;42.624;23.334;2022-11-12T14:08:01;7.53;;;6.07;;
12474;SDS011;6302;42.624;23.334;2022-11-12T14:10:42;7.00;;;6.00;;
12474;SDS011;6302;42.624;23.334;2022-11-12T14:13:27;6.10;;;5.43;;
12474;SDS011;6302;42.624;23.334;2022-11-12T14:16:11;7.20;;;6.47;;
12474;SDS011;6302;42.624;23.334;2022-11-12T14:18:56;8.60;;;6.13;;
12474;SDS011;6302;42.624;23.334;2022-11-12T14:21:33;7.00;;;6.10;;
12474;SDS011;6302;42.624;23.334;2022-11-12T14:24:00;7.77;;;6.23;;
12474;SDS011;6302;42.624;23.334;2022-11-12T14:26:33;6.63;;;5.57;;
12474;SDS011;6302;42.624;23.334;2022-11-12T14:29:02;6.47;;;5.70;;
12474;SDS011;6302;42.624;23.334;2022-11-12T14:31:29;5.87;;;5.27;;
12474;SDS011;6302;42.624;23.334;2022-11-12T14:36:44;7.47;;;6.17;;
12474;SDS011;6302;42.624;23.334;2022-11-12T14:39:12;6.17;;;5.53;;
12474;SDS011;6302;42.624;23.334;2022-11-12T14:41:40;7.47;;;5.60;;
12474;SDS011;6302;42.624;23.334;2022-11-12T14:44:13;7.57;;;5.87;;
12474;SDS011;6302;42.624;23.334;2022-11-12T14:46:44;12.13;;;6.97;;
12474;SDS011;6302;42.624;23.334;2022-11-12T14:49:14;11.73;;;6.50;;
12474;SDS011;6302;42.624;23.334;2022-11-12T14:51:48;10.23;;;5.90;;
12474;SDS011;6302;42.624;23.334;2022-11-12T14:54:22;13.80;;;7.77;;
12474;SDS011;6302;42.624;23.334;2022-11-12T14:56:57;10.03;;;7.00;;
12474;SDS011;6302;42.624;23.334;2022-11-12T14:59:26;6.13;;;5.53;;
12474;SDS011;6302;42.624;23.334;2022-11-12T15:02:03;5.80;;;5.20;;
12474;SDS011;6302;42.624;23.334;2022-11-12T15:04:35;6.90;;;6.20;;
12474;SDS011;6302;42.624;23.334;2022-11-12T15:07:04;7.20;;;5.87;;
12474;SDS011;6302;42.624;23.334;2022-11-12T15:09:34;5.13;;;4.60;;
12474;SDS011;6302;42.624;23.334;2022-11-12T15:12:06;5.00;;;4.07;;
12474;SDS011;6302;42.624;23.334;2022-11-12T15:14:36;4.10;;;3.67;;
12474;SDS011;6302;42.624;23.334;2022-11-12T15:17:03;5.00;;;4.47;;
12474;SDS011;6302;42.624;23.334;2022-11-12T15:19:30;5.47;;;4.97;;
12474;SDS011;6302;42.624;23.334;2022-11-12T15:21:58;6.10;;;5.50;;
12474;SDS011;6302;42.624;23.334;2022-11-12T15:24:27;8.93;;;6.80;;
12474;SDS011;6302;42.624;23.334;2022-11-12T15:26:57;10.47;;;8.40;;
12474;SDS011;6302;42.624;23.334;2022-11-12T15:29:28;9.80;;;7.80;;
12474;SDS011;6302;42.624;23.334;2022-11-12T15:31:58;9.60;;;8.30;;
12474;SDS011;6302;42.624;23.334;2022-11-12T15:34:27;9.50;;;7.40;;
12474;SDS011;6302;42.624;23.334;2022-11-12T15:36:57;9.53;;;8.23;;
12474;SDS011;6302;42.624;23.334;2022-11-12T15:39:26;8.93;;;8.00;;
12474;SDS011;6302;42.624;23.334;2022-11-12T15:41:58;8.50;;;7.40;;
12474;SDS011;6302;42.624;23.334;2022-11-12T15:44:31;6.47;;;5.87;;